メインページ
METAR-TAF:

METAR-TAF

空港 :

キング・アブドゥルアズィーズ国際空港

ジッダ, サウジアラビア

緯度: 21-42N, 経度: 039-11E, 海抜: 15m

現時点の気象観測

当レポートは38分前の06:00(UTC)に作成
の風 6kt
気温 25°C
湿度 47%
気圧 1015 hPa
視程10km以上
高度4000ftの雲は散在している

METAR: OEJN 150600Z 36006KT 9999 SCT040 25/13 Q1015 NOSIG

時間: 09:38 (06:38 UTC)

予報

当レポートは1時間38分前の05:00(UTC)に作成
予報は15日の 06時(UTC)から 16日の 12時(UTC)まで有効
北/北西の風 15kt
視程10km以上
高度4000ftの雲はほとんどない
高度8000ftの雲は散在している
15日の 21時(UTC)から 15日の 23時(UTC)まで徐々に
北/北東の風 10kt

TAF: OEJN 150500Z 1506/1612 33015KT 9999 FEW040 SCT080 BECMG 1521/1523 03010KT

4,000以上の空港の気象観測と天気予報(METAR報とTAF報)

利用可能な観測所は地図上に黄色い丸と赤い丸で示す。

丸の上にカーソルを重ねると観測所名を参照できる。

次にクリックすると気象観測と天気予報を参照できる。

マップの切り替え:黒色「×」印の緑ボタンをクリックして拡大、「-」印の緑ボタンをクリックして縮小、緑色の三角印をクリックして隣りの地図に切り替え


METAR-TAF: